Time;durP1;ratioP1;P1;durP2;ratioP2;P2;SDS_P1;SDS_P2;PMS_P1;PMS_P2;Temp;Humidity;BMP_temperature;BMP_pressure;BME280_temperature;BME280_humidity;BME280_pressure;Samples;Min_cycle;Max_cycle;Signal;HPM_P1;HPM_P2
2021/11/13 00:00:14;;;;;;;35.50;14.73;;;4.20;96.20;;;;;;5000467;28;20285;-71
2021/11/13 00:02:40;;;;;;;41.95;16.83;;;4.20;96.30;;;;;;4984121;28;20034;-70
2021/11/13 00:05:06;;;;;;;41.38;16.50;;;4.20;96.30;;;;;;4984650;28;20093;-70
2021/11/13 00:07:32;;;;;;;40.13;14.00;;;4.10;96.30;;;;;;5000693;28;20085;-71
2021/11/13 00:09:58;;;;;;;38.50;15.80;;;3.90;96.60;;;;;;5000139;28;20329;-70
2021/11/13 00:12:24;;;;;;;40.53;14.95;;;3.80;96.80;;;;;;5000287;28;20328;-70
2021/11/13 00:14:50;;;;;;;33.95;14.88;;;3.80;97.10;;;;;;4984315;28;20324;-70
2021/11/13 00:17:16;;;;;;;43.35;19.33;;;3.80;97.00;;;;;;5000533;28;20022;-70
2021/11/13 00:19:43;;;;;;;36.08;14.77;;;3.90;97.20;;;;;;5000550;28;20030;-70
2021/11/13 00:22:09;;;;;;;33.33;15.05;;;3.90;96.90;;;;;;5001245;28;20026;-70
2021/11/13 00:24:36;;;;;;;32.85;14.45;;;3.90;96.90;;;;;;5000407;28;20057;-69
2021/11/13 00:27:05;;;;;;;30.13;13.15;;;3.90;96.90;;;;;;4984441;28;20030;-70
2021/11/13 00:29:31;;;;;;;29.13;12.68;;;3.90;96.80;;;;;;5001070;28;20089;-70
2021/11/13 00:31:57;;;;;;;29.92;13.38;;;3.80;97.00;;;;;;5001088;28;20018;-70
2021/11/13 00:34:23;;;;;;;29.48;12.68;;;3.80;96.70;;;;;;5002289;28;20237;-70
2021/11/13 00:36:49;;;;;;;28.45;13.30;;;3.80;96.50;;;;;;5000802;28;20026;-70
2021/11/13 00:39:15;;;;;;;28.83;12.83;;;3.80;96.60;;;;;;5001041;28;20030;-70
2021/11/13 00:41:41;;;;;;;28.87;10.10;;;3.80;96.60;;;;;;4983523;28;20383;-70
2021/11/13 00:44:07;;;;;;;26.35;12.25;;;3.90;96.70;;;;;;5000367;28;20277;-69
2021/11/13 00:46:33;;;;;;;25.63;11.98;;;3.80;96.50;;;;;;5000397;28;20161;-69
2021/11/13 00:48:59;;;;;;;25.58;12.30;;;3.80;96.60;;;;;;5000243;28;20038;-69
2021/11/13 00:51:25;;;;;;;23.50;11.15;;;3.90;96.70;;;;;;5000075;28;20375;-70
2021/11/13 00:53:50;;;;;;;22.13;10.40;;;3.80;96.60;;;;;;5000353;28;20046;-70
2021/11/13 00:56:16;;;;;;;27.45;12.07;;;3.70;97.10;;;;;;5000302;28;20114;-68
2021/11/13 00:58:42;;;;;;;25.27;11.55;;;3.70;96.70;;;;;;5000122;28;20197;-69
2021/11/13 01:01:08;;;;;;;27.50;11.68;;;3.70;96.70;;;;;;4983646;28;20022;-69
2021/11/13 01:03:34;;;;;;;24.52;11.38;;;3.70;96.90;;;;;;5000239;28;20066;-71
2021/11/13 01:06:00;;;;;;;22.17;11.80;;;3.70;96.90;;;;;;4983805;28;20224;-70
2021/11/13 01:08:26;;;;;;;27.50;11.53;;;3.70;97.00;;;;;;4967839;28;20277;-70
2021/11/13 01:10:52;;;;;;;20.70;10.02;;;3.70;96.70;;;;;;5000608;28;20022;-69
2021/11/13 01:13:19;;;;;;;24.70;12.38;;;3.70;96.80;;;;;;5000158;28;20074;-69
2021/11/13 01:15:45;;;;;;;23.60;11.30;;;3.70;96.70;;;;;;5000270;28;20026;-69
2021/11/13 01:18:11;;;;;;;22.42;10.50;;;3.70;96.60;;;;;;4967645;28;20029;-69
2021/11/13 01:20:37;;;;;;;26.83;12.37;;;3.70;96.50;;;;;;4983415;28;20035;-69
2021/11/13 01:23:03;;;;;;;24.02;11.13;;;3.60;96.70;;;;;;5001224;28;20030;-69
2021/11/13 01:25:29;;;;;;;27.98;12.90;;;3.60;96.80;;;;;;4983619;28;20048;-69
2021/11/13 01:27:55;;;;;;;24.05;10.73;;;3.60;96.70;;;;;;5002033;28;20065;-69
2021/11/13 01:30:21;;;;;;;20.13;9.73;;;3.60;96.70;;;;;;4986838;28;20233;-69
2021/11/13 01:32:47;;;;;;;23.65;11.27;;;3.60;96.80;;;;;;4955237;28;20026;-69
2021/11/13 01:35:14;;;;;;;23.52;12.30;;;3.50;96.90;;;;;;5004550;28;20321;-69
2021/11/13 01:37:40;;;;;;;28.05;13.85;;;3.50;96.90;;;;;;5003308;28;20248;-70
2021/11/13 01:40:09;;;;;;;28.07;12.20;;;3.50;96.80;;;;;;4982814;28;20044;-69
2021/11/13 01:42:34;;;;;;;25.63;10.70;;;3.50;96.90;;;;;;4983176;28;20042;-70
2021/11/13 01:45:01;;;;;;;32.30;15.60;;;3.40;96.90;;;;;;4967603;28;20027;-69
2021/11/13 01:47:26;;;;;;;23.23;11.38;;;3.50;96.90;;;;;;4983413;28;20022;-70
2021/11/13 01:49:52;;;;;;;26.92;12.35;;;3.60;96.80;;;;;;4985083;28;20101;-69
2021/11/13 01:52:18;;;;;;;28.13;11.40;;;3.60;96.70;;;;;;4986262;28;20018;-69
2021/11/13 01:54:44;;;;;;;23.30;11.02;;;3.50;96.70;;;;;;4986760;28;20053;-69
2021/11/13 01:57:18;;;;;;;27.67;12.57;;;3.60;96.70;;;;;;4986397;28;20627;-69
2021/11/13 01:59:44;;;;;;;21.52;10.45;;;3.50;96.80;;;;;;4987372;28;20037;-69
2021/11/13 02:02:10;;;;;;;21.35;11.40;;;3.50;96.80;;;;;;5002526;28;20236;-69
2021/11/13 02:04:36;;;;;;;22.45;9.95;;;3.60;96.70;;;;;;4986413;28;20022;-69
2021/11/13 02:07:02;;;;;;;26.02;11.70;;;3.60;96.60;;;;;;5002682;28;20018;-69
2021/11/13 02:09:28;;;;;;;23.90;11.03;;;3.60;96.50;;;;;;5002143;28;20026;-70
2021/11/13 02:11:54;;;;;;;21.00;10.43;;;3.60;96.40;;;;;;4985737;28;20022;-69
2021/11/13 02:14:20;;;;;;;24.63;10.75;;;3.60;96.30;;;;;;5002562;28;20059;-69
2021/11/13 02:16:46;;;;;;;20.73;10.35;;;3.50;96.20;;;;;;4970123;28;20383;-69
2021/11/13 02:19:12;;;;;;;20.17;10.18;;;3.60;96.30;;;;;;5002322;28;20312;-69
2021/11/13 02:21:38;;;;;;;21.45;10.30;;;3.50;96.40;;;;;;5003029;28;20050;-69
2021/11/13 02:24:04;;;;;;;20.30;9.70;;;3.50;96.50;;;;;;5002260;28;20186;-70
2021/11/13 02:26:30;;;;;;;20.55;10.25;;;3.50;96.40;;;;;;4986027;28;20025;-69
2021/11/13 02:28:56;;;;;;;23.10;10.85;;;3.50;96.40;;;;;;5003332;28;20076;-70
2021/11/13 02:31:35;;;;;;;23.73;10.20;;;3.60;96.20;;;;;;5001791;28;20033;-70
2021/11/13 02:34:03;;;;;;;21.73;10.27;;;3.60;96.20;;;;;;4986165;28;20045;-69
2021/11/13 02:36:29;;;;;;;22.98;10.23;;;3.60;96.10;;;;;;5001982;28;20128;-69
2021/11/13 02:38:56;;;;;;;19.92;10.05;;;3.60;95.90;;;;;;5001226;28;20129;-69
2021/11/13 02:41:22;;;;;;;;;;;3.70;95.80;;;;;;4968936;28;20064;-70
2021/11/13 02:43:49;;;;;;;21.15;9.60;;;3.70;95.50;;;;;;5001743;28;19910;-70
2021/11/13 02:46:15;;;;;;;21.42;9.55;;;3.60;95.70;;;;;;5001975;28;20096;-69
2021/11/13 02:48:42;;;;;;;20.20;8.93;;;3.60;95.70;;;;;;4985529;28;20113;-69
2021/11/13 02:51:09;;;;;;;19.33;9.50;;;3.60;95.80;;;;;;5001197;28;20069;-69
2021/11/13 02:53:35;;;;;;;21.15;9.93;;;3.60;95.90;;;;;;5001777;28;20026;-69
2021/11/13 02:56:04;;;;;;;17.83;9.00;;;3.60;95.90;;;;;;4985138;28;20245;-69
2021/11/13 02:58:30;;;;;;;20.67;10.00;;;3.70;95.90;;;;;;5001520;28;20022;-70
2021/11/13 03:01:00;;;;;;;21.38;11.18;;;3.70;95.80;;;;;;5001078;28;20085;-70
2021/11/13 03:03:26;;;;;;;20.23;9.95;;;3.70;95.90;;;;;;5001433;28;20027;-70
2021/11/13 03:05:57;;;;;;;20.15;9.20;;;3.70;96.00;;;;;;5001561;28;20037;-70
2021/11/13 03:08:31;;;;;;;19.63;10.07;;;3.70;95.80;;;;;;5001205;28;20026;-69
2021/11/13 03:11:04;;;;;;;19.02;9.23;;;3.80;95.70;;;;;;5000783;28;20018;-70
2021/11/13 03:13:30;;;;;;;24.10;9.48;;;3.70;95.60;;;;;;5001383;28;20029;-70
2021/11/13 03:15:56;;;;;;;19.08;9.25;;;3.70;95.60;;;;;;5001245;28;20030;-69
2021/11/13 03:18:22;;;;;;;18.13;9.33;;;3.70;95.50;;;;;;5001103;28;20033;-70
2021/11/13 03:20:48;;;;;;;19.15;8.43;;;3.70;95.70;;;;;;5001932;28;20085;-70
2021/11/13 03:23:14;;;;;;;17.95;9.20;;;3.70;95.70;;;;;;4985094;28;20030;-70
2021/11/13 03:25:44;;;;;;;17.17;8.80;;;3.80;95.50;;;;;;5002103;28;20117;-70
2021/11/13 03:28:12;;;;;;;20.35;9.48;;;3.80;95.60;;;;;;4969836;28;20089;-70
2021/11/13 03:30:38;;;;;;;20.00;8.95;;;3.90;95.50;;;;;;4968520;28;20034;-70
2021/11/13 03:33:05;;;;;;;18.60;8.57;;;3.80;95.50;;;;;;5000927;28;20023;-70
2021/11/13 03:35:32;;;;;;;17.10;8.50;;;3.90;95.50;;;;;;4952932;28;20053;-70
2021/11/13 03:38:08;;;;;;;20.27;9.32;;;3.90;95.40;;;;;;5002043;28;20036;-69
2021/11/13 03:40:37;;;;;;;16.20;8.75;;;3.90;95.40;;;;;;4985002;28;20040;-70
2021/11/13 03:43:04;;;;;;;19.45;8.73;;;3.80;95.30;;;;;;4985084;28;20028;-70
2021/11/13 03:45:30;;;;;;;17.45;8.32;;;3.80;95.30;;;;;;4968716;28;20058;-69
2021/11/13 03:47:56;;;;;;;19.58;9.23;;;3.90;95.20;;;;;;5000712;28;20037;-69
2021/11/13 03:50:22;;;;;;;18.15;9.48;;;3.80;95.30;;;;;;5000256;28;20026;-70
2021/11/13 03:52:48;;;;;;;17.10;8.73;;;3.80;95.30;;;;;;4984193;28;20022;-70
2021/11/13 03:55:14;;;;;;;16.73;7.85;;;3.80;95.30;;;;;;5000485;28;20262;-70
2021/11/13 03:57:40;;;;;;;16.95;7.82;;;3.80;95.20;;;;;;5000574;28;20105;-70
2021/11/13 04:00:09;;;;;;;17.83;8.82;;;3.90;94.90;;;;;;4984535;28;20037;-69
2021/11/13 04:02:34;;;;;;;15.57;8.30;;;3.80;95.00;;;;;;5000307;28;20382;-70
2021/11/13 04:05:00;;;;;;;21.05;7.88;;;3.80;95.20;;;;;;5000784;28;20026;-70
2021/11/13 04:07:26;;;;;;;13.70;7.13;;;3.70;95.00;;;;;;5001519;28;20045;-70
2021/11/13 04:09:52;;;;;;;16.02;8.27;;;3.70;95.30;;;;;;5000418;28;20050;-69
2021/11/13 04:12:18;;;;;;;15.52;7.35;;;3.70;95.20;;;;;;4983641;28;20069;-69
2021/11/13 04:14:45;;;;;;;16.23;8.55;;;3.80;95.10;;;;;;5000457;28;20045;-70
2021/11/13 04:17:11;;;;;;;18.77;7.55;;;3.80;95.00;;;;;;4968640;28;20022;-70
2021/11/13 04:19:37;;;;;;;14.93;8.40;;;3.80;94.90;;;;;;4984204;28;20347;-69
2021/11/13 04:22:03;;;;;;;17.57;7.70;;;3.80;95.00;;;;;;4983985;28;20030;-70
2021/11/13 04:24:29;;;;;;;16.55;7.78;;;3.90;94.80;;;;;;5000266;28;20296;-70
2021/11/13 04:26:55;;;;;;;15.15;7.82;;;3.90;94.60;;;;;;4999872;28;20026;-69
2021/11/13 04:29:21;;;;;;;15.25;6.75;;;3.80;94.70;;;;;;4983957;28;20085;-70
2021/11/13 04:31:47;;;;;;;16.75;8.32;;;3.90;94.60;;;;;;4983802;28;20018;-71
2021/11/13 04:34:18;;;;;;;16.00;6.93;;;3.90;94.50;;;;;;4983823;28;20025;-71
2021/11/13 04:36:46;;;;;;;16.33;7.18;;;3.80;94.60;;;;;;4969537;28;20022;-69
2021/11/13 04:39:12;;;;;;;15.15;7.00;;;3.80;94.60;;;;;;5001319;28;20042;-69
2021/11/13 04:41:39;;;;;;;15.52;7.35;;;3.80;94.40;;;;;;4948424;28;20219;-69
2021/11/13 04:44:05;;;;;;;16.17;7.40;;;3.70;94.50;;;;;;4997058;28;20038;-70
2021/11/13 04:46:33;;;;;;;13.52;6.97;;;3.80;94.60;;;;;;4996918;28;20217;-71
2021/11/13 04:48:59;;;;;;;16.33;6.65;;;3.70;94.80;;;;;;4996877;28;20090;-71
2021/11/13 04:51:25;;;;;;;16.13;7.82;;;3.70;94.60;;;;;;4982263;28;20039;-70
2021/11/13 04:53:51;;;;;;;14.63;6.63;;;3.60;94.30;;;;;;4997328;28;20023;-69
2021/11/13 04:56:17;;;;;;;15.43;6.90;;;3.60;94.40;;;;;;4982126;28;20100;-69
2021/11/13 04:58:43;;;;;;;15.05;8.15;;;3.60;94.50;;;;;;4982361;28;20030;-69
2021/11/13 05:01:09;;;;;;;16.67;7.35;;;3.50;94.50;;;;;;4980912;28;20014;-69
2021/11/13 05:03:35;;;;;;;17.70;8.15;;;3.50;94.40;;;;;;4983191;28;20026;-69
2021/11/13 05:06:00;;;;;;;15.85;7.95;;;3.50;94.60;;;;;;5001190;28;20352;-69
2021/11/13 05:08:26;;;;;;;14.95;7.15;;;3.50;94.80;;;;;;4984667;28;20262;-69
2021/11/13 05:10:52;;;;;;;17.33;8.38;;;3.50;94.50;;;;;;5009332;28;20044;-70
2021/11/13 05:13:19;;;;;;;16.92;8.98;;;3.50;94.60;;;;;;5005200;28;20018;-69
2021/11/13 05:15:44;;;;;;;18.35;8.43;;;3.50;94.50;;;;;;5004260;28;20034;-69
2021/11/13 05:18:10;;;;;;;21.00;9.38;;;3.60;94.50;;;;;;5002795;28;20035;-69
2021/11/13 05:20:36;;;;;;;16.90;8.65;;;3.60;94.40;;;;;;5003816;28;20052;-70
2021/11/13 05:23:02;;;;;;;17.43;8.07;;;3.60;94.50;;;;;;4987975;28;20352;-69
2021/11/13 05:25:28;;;;;;;14.75;6.88;;;3.50;94.30;;;;;;5004787;28;20280;-69
2021/11/13 05:27:54;;;;;;;15.55;7.85;;;3.50;94.40;;;;;;5003906;28;20202;-70
2021/11/13 05:30:21;;;;;;;16.05;7.07;;;3.50;94.50;;;;;;5003779;28;20317;-70
2021/11/13 05:32:47;;;;;;;16.63;7.70;;;3.60;94.40;;;;;;5003865;28;20019;-69
2021/11/13 05:35:14;;;;;;;14.20;6.60;;;3.60;94.40;;;;;;5003896;28;20027;-69
2021/11/13 05:37:40;;;;;;;16.60;7.30;;;3.60;94.50;;;;;;4987470;28;20035;-70
2021/11/13 05:40:07;;;;;;;14.17;7.53;;;3.60;94.60;;;;;;5003872;28;20034;-69
2021/11/13 05:42:34;;;;;;;;;;;3.60;94.50;;;;;;5004224;28;20054;-70
2021/11/13 05:45:01;;;;;;;13.00;6.97;;;3.60;94.50;;;;;;4987609;28;19906;-69
2021/11/13 05:47:27;;;;;;;;;;;3.60;94.50;;;;;;5004160;28;20044;-70
2021/11/13 05:49:53;;;;;;;15.10;7.22;;;3.60;94.60;;;;;;4987332;28;19944;-70
2021/11/13 05:52:19;;;;;;;14.00;7.18;;;3.70;94.30;;;;;;4987090;28;20019;-70
2021/11/13 05:54:45;;;;;;;16.27;7.97;;;3.50;94.60;;;;;;4955098;28;20383;-70
2021/11/13 05:57:11;;;;;;;14.30;7.53;;;3.60;94.60;;;;;;4987013;28;20032;-69
2021/11/13 05:59:37;;;;;;;17.15;7.63;;;3.60;94.40;;;;;;5003490;28;20037;-70
2021/11/13 06:02:04;;;;;;;14.25;7.43;;;3.60;94.50;;;;;;4986920;28;20026;-70
2021/11/13 06:04:30;;;;;;;14.93;7.60;;;3.60;94.50;;;;;;4987036;28;20289;-69
2021/11/13 06:06:55;;;;;;;14.70;7.82;;;3.60;94.50;;;;;;4987105;28;20042;-69
2021/11/13 06:09:21;;;;;;;18.67;7.85;;;3.60;94.50;;;;;;5003322;28;20041;-69
2021/11/13 06:11:47;;;;;;;11.45;6.30;;;3.60;94.50;;;;;;5002732;28;20057;-69
2021/11/13 06:14:13;;;;;;;15.40;7.03;;;3.60;94.50;;;;;;5004091;28;20095;-71
2021/11/13 06:16:39;;;;;;;19.45;8.73;;;3.60;94.50;;;;;;4987014;28;20104;-71
2021/11/13 06:19:04;;;;;;;15.82;7.68;;;3.50;94.50;;;;;;5003970;28;20037;-69
2021/11/13 06:21:30;;;;;;;15.43;7.57;;;3.50;94.60;;;;;;4954405;28;20344;-70
2021/11/13 06:23:56;;;;;;;18.48;8.82;;;3.50;94.60;;;;;;5002862;28;20037;-69
2021/11/13 06:26:22;;;;;;;13.52;7.05;;;3.50;94.60;;;;;;5000913;28;20033;-65
2021/11/13 06:28:48;;;;;;;13.60;6.90;;;3.60;94.60;;;;;;5003809;28;20257;-66
2021/11/13 06:31:14;;;;;;;11.48;5.93;;;3.60;94.60;;;;;;5003622;28;20023;-66
2021/11/13 06:33:40;;;;;;;14.05;6.60;;;3.60;94.50;;;;;;5019278;28;20022;-65
2021/11/13 06:36:06;;;;;;;11.60;6.90;;;3.60;94.60;;;;;;5003538;28;20026;-66
2021/11/13 06:38:32;;;;;;;12.85;6.60;;;3.60;94.60;;;;;;5002797;28;20359;-66
2021/11/13 06:40:58;;;;;;;16.80;8.45;;;3.70;94.50;;;;;;5001868;28;20212;-66
2021/11/13 06:43:24;;;;;;;11.70;5.85;;;3.70;94.40;;;;;;5000333;28;20026;-66
2021/11/13 06:45:50;;;;;;;14.00;7.15;;;3.70;94.40;;;;;;4999629;28;20038;-66
2021/11/13 06:48:17;;;;;;;14.15;7.10;;;3.70;94.30;;;;;;5026593;28;20030;-65
2021/11/13 06:50:45;;;;;;;11.80;6.57;;;3.70;94.30;;;;;;5002951;28;20033;-65
2021/11/13 06:53:11;;;;;;;15.05;7.53;;;3.80;94.30;;;;;;5009807;28;20041;-66
2021/11/13 06:55:37;;;;;;;13.30;7.13;;;3.80;94.30;;;;;;5002301;28;20022;-66
2021/11/13 06:58:03;;;;;;;15.00;7.60;;;3.80;94.30;;;;;;5003040;28;20022;-66
2021/11/13 07:00:29;;;;;;;13.55;7.07;;;3.80;94.30;;;;;;5018487;28;20026;-66
2021/11/13 07:02:59;;;;;;;13.70;6.50;;;3.80;94.60;;;;;;5003359;28;20030;-66
2021/11/13 07:05:25;;;;;;;14.00;6.75;;;3.80;94.30;;;;;;5017739;28;20022;-66
2021/11/13 07:07:51;;;;;;;14.40;6.43;;;3.80;94.40;;;;;;5034793;28;20045;-65
2021/11/13 07:10:17;;;;;;;13.07;5.88;;;3.90;94.20;;;;;;5002924;28;20038;-65
2021/11/13 07:12:43;;;;;;;11.40;6.22;;;3.90;94.10;;;;;;5000520;28;20018;-65
2021/11/13 07:15:10;;;;;;;13.38;6.93;;;3.80;94.10;;;;;;5002958;28;20026;-65
2021/11/13 07:17:36;;;;;;;8.35;5.28;;;3.80;94.10;;;;;;5001618;28;20026;-65
2021/11/13 07:20:03;;;;;;;10.52;5.97;;;3.90;94.10;;;;;;5002949;28;20225;-66
2021/11/13 07:22:28;;;;;;;10.05;5.57;;;3.80;94.10;;;;;;5002805;28;20044;-66
2021/11/13 07:24:54;;;;;;;10.60;5.80;;;3.70;94.20;;;;;;5002558;28;20045;-66
2021/11/13 07:27:20;;;;;;;11.68;5.78;;;3.70;94.40;;;;;;5002168;28;20026;-66
2021/11/13 07:29:47;;;;;;;13.02;6.63;;;3.60;94.40;;;;;;5002631;28;20066;-66
2021/11/13 07:32:14;;;;;;;;;;;3.70;94.50;;;;;;5002804;28;20093;-65
2021/11/13 07:34:40;;;;;;;11.15;5.00;;;3.70;94.70;;;;;;5002583;28;19913;-65
2021/11/13 07:37:06;;;;;;;12.40;6.70;;;3.60;94.80;;;;;;5002362;28;20092;-65
2021/11/13 07:39:32;;;;;;;11.38;6.07;;;3.60;94.80;;;;;;5002505;28;20085;-65
2021/11/13 07:41:58;;;;;;;14.98;6.32;;;3.60;95.00;;;;;;4999394;28;20173;-66
2021/11/13 07:44:23;;;;;;;10.40;6.07;;;3.60;94.90;;;;;;5002640;28;20086;-65
2021/11/13 07:46:50;;;;;;;10.77;5.72;;;3.70;95.00;;;;;;4985244;28;20018;-65
2021/11/13 07:49:15;;;;;;;9.30;5.45;;;3.70;95.00;;;;;;5002692;28;20034;-65
2021/11/13 07:51:41;;;;;;;11.50;6.78;;;3.70;94.90;;;;;;5002236;28;20072;-66
2021/11/13 07:54:10;;;;;;;12.02;5.93;;;3.70;94.90;;;;;;5002341;28;20348;-66
2021/11/13 07:56:36;;;;;;;11.48;6.55;;;3.70;95.00;;;;;;5002197;28;20213;-66
2021/11/13 07:59:03;;;;;;;11.07;6.22;;;3.80;95.00;;;;;;5002186;28;20029;-66
2021/11/13 08:01:29;;;;;;;12.75;6.32;;;3.80;95.20;;;;;;5001393;28;20052;-66
2021/11/13 08:03:55;;;;;;;17.23;8.05;;;3.90;94.90;;;;;;5001628;28;20285;-66
2021/11/13 08:06:20;;;;;;;12.07;6.80;;;3.90;94.80;;;;;;5001324;28;20116;-65
2021/11/13 08:08:46;;;;;;;14.35;7.15;;;3.90;94.90;;;;;;5001465;28;20057;-65
2021/11/13 08:11:12;;;;;;;13.75;7.32;;;3.90;95.00;;;;;;5001209;28;20030;-66
2021/11/13 08:13:40;;;;;;;13.05;7.10;;;3.90;95.00;;;;;;4999494;28;20347;-66
2021/11/13 08:16:06;;;;;;;15.27;7.20;;;4.00;95.20;;;;;;5001853;28;20029;-67
2021/11/13 08:18:31;;;;;;;12.90;6.38;;;4.00;95.30;;;;;;5001467;28;20026;-65
2021/11/13 08:20:59;;;;;;;12.85;6.68;;;4.00;95.40;;;;;;5001376;28;20060;-66
2021/11/13 08:23:26;;;;;;;13.98;6.82;;;4.10;95.10;;;;;;5001704;28;20045;-66
2021/11/13 08:25:52;;;;;;;13.13;7.13;;;4.20;94.90;;;;;;5000232;28;20030;-66
2021/11/13 08:28:19;;;;;;;13.98;6.70;;;4.30;95.00;;;;;;5016110;28;20093;-65
2021/11/13 08:30:45;;;;;;;13.95;6.20;;;4.30;94.60;;;;;;4999857;28;20030;-66
2021/11/13 08:33:11;;;;;;;13.07;6.63;;;4.40;94.40;;;;;;5001741;28;20054;-65
2021/11/13 08:35:39;;;;;;;9.07;5.50;;;4.40;94.30;;;;;;5001430;28;20030;-65
2021/11/13 08:38:05;;;;;;;12.55;6.10;;;4.50;94.20;;;;;;5002796;28;20033;-65
2021/11/13 08:40:31;;;;;;;14.17;6.00;;;4.50;93.80;;;;;;5005381;28;20041;-66
2021/11/13 08:42:58;;;;;;;10.10;6.13;;;4.50;93.80;;;;;;5021185;28;20029;-65
2021/11/13 08:45:23;;;;;;;11.48;5.82;;;4.50;94.00;;;;;;5004276;28;20026;-64
2021/11/13 08:47:49;;;;;;;12.48;5.68;;;4.60;94.30;;;;;;5005250;28;20057;-65
2021/11/13 08:50:19;;;;;;;13.82;6.32;;;4.60;94.00;;;;;;5005162;28;20114;-66
2021/11/13 08:52:49;;;;;;;12.02;6.38;;;4.60;94.00;;;;;;5005266;28;20020;-65
2021/11/13 08:55:15;;;;;;;12.35;6.18;;;4.60;94.00;;;;;;5005292;28;20022;-67
2021/11/13 08:57:45;;;;;;;12.05;6.30;;;4.70;93.80;;;;;;5004947;28;20097;-67
2021/11/13 09:00:13;;;;;;;13.32;6.38;;;4.60;94.10;;;;;;5005206;28;20245;-66
2021/11/13 09:02:39;;;;;;;10.65;5.25;;;4.80;93.50;;;;;;5004877;28;20075;-66
2021/11/13 09:05:06;;;;;;;12.07;5.67;;;4.70;93.20;;;;;;5004090;28;20089;-66
2021/11/13 09:07:32;;;;;;;9.82;5.80;;;4.70;93.60;;;;;;5003832;28;20022;-65
2021/11/13 09:09:58;;;;;;;9.82;5.25;;;4.70;93.20;;;;;;5005186;28;20093;-65
2021/11/13 09:12:27;;;;;;;13.57;6.38;;;4.90;93.40;;;;;;5004341;28;20025;-65
2021/11/13 09:15:03;;;;;;;12.98;7.07;;;5.10;92.60;;;;;;5003670;28;20026;-66
2021/11/13 09:17:30;;;;;;;11.02;6.25;;;5.10;93.20;;;;;;5003661;28;20353;-67
2021/11/13 09:19:56;;;;;;;14.38;7.63;;;5.20;93.10;;;;;;5004025;28;20165;-68
2021/11/13 09:22:22;;;;;;;10.57;6.20;;;5.10;92.40;;;;;;5004829;28;20034;-68
2021/11/13 09:24:48;;;;;;;9.43;6.03;;;5.00;92.40;;;;;;5004815;28;20350;-68
2021/11/13 09:27:14;;;;;;;11.60;6.28;;;5.00;92.30;;;;;;5004289;28;20091;-67
2021/11/13 09:29:39;;;;;;;10.40;5.93;;;5.00;92.60;;;;;;5019684;28;20019;-68
2021/11/13 09:32:06;;;;;;;11.48;6.10;;;5.10;92.70;;;;;;5035996;28;20050;-67
2021/11/13 09:34:31;;;;;;;10.10;5.20;;;5.20;92.30;;;;;;5004851;28;20027;-67
2021/11/13 09:36:57;;;;;;;10.80;6.32;;;5.20;92.10;;;;;;5004824;28;20089;-68
2021/11/13 09:39:23;;;;;;;13.18;6.45;;;5.10;92.30;;;;;;5003574;28;20038;-68
2021/11/13 09:41:49;;;;;;;11.98;6.40;;;5.10;92.50;;;;;;5003601;28;20056;-68
2021/11/13 09:44:16;;;;;;;10.93;5.85;;;5.10;92.90;;;;;;5004609;28;20037;-68
2021/11/13 09:46:42;;;;;;;;;;;5.20;92.80;;;;;;5004959;28;20318;-69
2021/11/13 09:49:08;;;;;;;11.10;5.57;;;5.30;92.00;;;;;;5003783;28;19910;-67
2021/11/13 09:51:34;;;;;;;9.32;5.82;;;5.40;92.00;;;;;;5004196;28;20026;-68
2021/11/13 09:54:00;;;;;;;12.52;5.68;;;5.40;92.00;;;;;;5003025;28;20077;-67
2021/11/13 09:56:26;;;;;;;15.15;8.20;;;5.40;91.70;;;;;;5002890;28;20026;-68
2021/11/13 09:58:51;;;;;;;18.08;9.73;;;5.50;91.70;;;;;;5003915;28;20022;-68
2021/11/13 10:01:18;;;;;;;14.02;6.70;;;5.50;91.70;;;;;;5002688;28;20069;-68
2021/11/13 10:03:44;;;;;;;12.87;5.80;;;5.50;91.60;;;;;;5004253;28;20068;-68
2021/11/13 10:06:13;;;;;;;10.35;5.88;;;5.50;91.80;;;;;;5004026;28;20026;-67
2021/11/13 10:08:43;;;;;;;11.35;5.78;;;5.50;91.80;;;;;;5003854;28;20471;-67
2021/11/13 10:11:14;;;;;;;11.23;6.32;;;5.60;92.00;;;;;;5003525;28;20018;-67
2021/11/13 10:13:43;;;;;;;11.90;5.80;;;5.60;92.40;;;;;;5003417;28;20050;-67
2021/11/13 10:16:16;;;;;;;10.27;6.22;;;5.70;91.60;;;;;;4986584;28;20029;-68
2021/11/13 10:18:53;;;;;;;12.15;7.05;;;5.70;91.40;;;;;;5003468;28;20096;-67
2021/11/13 10:21:24;;;;;;;10.73;6.13;;;5.70;91.70;;;;;;5003325;28;20022;-67
2021/11/13 10:23:59;;;;;;;11.45;5.88;;;5.70;91.60;;;;;;5002422;28;20349;-68
2021/11/13 10:26:29;;;;;;;11.68;6.18;;;5.80;91.50;;;;;;5002055;28;20048;-67
2021/11/13 10:29:06;;;;;;;12.02;6.40;;;5.90;91.60;;;;;;5002314;28;20030;-68
2021/11/13 10:31:44;;;;;;;10.88;5.97;;;5.90;91.20;;;;;;5003140;28;20102;-67
2021/11/13 10:34:19;;;;;;;10.40;5.80;;;6.00;91.00;;;;;;5002446;28;20053;-68
2021/11/13 10:36:49;;;;;;;12.10;5.72;;;5.90;90.90;;;;;;5002200;28;20077;-67
2021/11/13 10:39:31;;;;;;;14.30;6.85;;;5.90;90.90;;;;;;5003274;28;20061;-67
2021/11/13 10:42:05;;;;;;;20.90;10.82;;;5.80;91.70;;;;;;5001353;28;20033;-67
2021/11/13 10:44:40;;;;;;;16.95;9.23;;;5.80;91.60;;;;;;5002394;28;20034;-67
2021/11/13 10:47:31;;;;;;;11.30;6.55;;;5.80;91.70;;;;;;5002503;28;20073;-67
2021/11/13 10:50:15;;;;;;;14.13;6.80;;;5.80;92.10;;;;;;4985627;28;20065;-66
2021/11/13 10:52:41;;;;;;;11.75;6.30;;;5.90;92.00;;;;;;5002879;28;20033;-66
2021/11/13 10:55:18;;;;;;;10.13;5.57;;;5.90;92.20;;;;;;5001669;28;20018;-67
2021/11/13 10:57:44;;;;;;;10.23;5.47;;;6.00;91.50;;;;;;5001447;28;20022;-67
2021/11/13 11:00:17;;;;;;;12.30;6.60;;;6.10;91.40;;;;;;5001605;28;20092;-66
2021/11/13 11:03:05;;;;;;;13.32;6.93;;;6.20;91.30;;;;;;4968641;28;20029;-66
2021/11/13 11:05:47;;;;;;;14.55;7.65;;;6.20;91.30;;;;;;4985617;28;20038;-67
2021/11/13 11:08:34;;;;;;;14.00;6.80;;;6.30;91.20;;;;;;4985917;28;20061;-67
2021/11/13 11:11:01;;;;;;;11.90;6.68;;;6.40;91.20;;;;;;5002102;28;20031;-66
2021/11/13 11:13:58;;;;;;;11.02;6.00;;;6.50;90.70;;;;;;5002424;28;20026;-66
2021/11/13 11:16:42;;;;;;;11.13;6.03;;;6.50;90.50;;;;;;5002883;28;20329;-66
2021/11/13 11:19:12;;;;;;;13.80;7.28;;;6.60;90.50;;;;;;5002674;28;20065;-66
2021/11/13 11:21:43;;;;;;;15.40;6.53;;;6.60;90.80;;;;;;5002441;28;20022;-65
2021/11/13 11:24:14;;;;;;;12.23;6.53;;;6.80;90.40;;;;;;5002470;28;20018;-67
2021/11/13 11:26:41;;;;;;;12.02;6.95;;;6.80;89.80;;;;;;5000972;28;20045;-67
2021/11/13 11:29:07;;;;;;;11.20;6.20;;;6.60;90.50;;;;;;5002224;28;20114;-66
2021/11/13 11:31:47;;;;;;;12.50;6.75;;;6.70;90.60;;;;;;5002528;28;20045;-68
2021/11/13 11:34:38;;;;;;;15.82;7.30;;;6.70;90.50;;;;;;5002527;28;20037;-67
2021/11/13 11:37:10;;;;;;;13.77;7.28;;;6.70;90.60;;;;;;5001060;28;20018;-66
2021/11/13 11:39:36;;;;;;;12.80;6.88;;;6.60;90.60;;;;;;5000771;28;20034;-68
2021/11/13 11:42:03;;;;;;;20.45;10.82;;;6.60;90.80;;;;;;4999825;28;20064;-66
2021/11/13 11:44:29;;;;;;;17.88;8.35;;;6.70;90.80;;;;;;5002052;28;20019;-67
2021/11/13 11:46:54;;;;;;;15.40;7.72;;;6.70;90.30;;;;;;5001028;28;20085;-66
2021/11/13 11:49:20;;;;;;;14.60;8.00;;;6.70;90.30;;;;;;5000393;28;20018;-67
2021/11/13 11:51:46;;;;;;;15.73;6.50;;;6.60;90.70;;;;;;5001614;28;20092;-67
2021/11/13 11:54:13;;;;;;;12.85;7.75;;;6.50;91.40;;;;;;5002016;28;20033;-67
2021/11/13 11:56:38;;;;;;;11.82;6.93;;;6.50;91.30;;;;;;5016722;28;20025;-67
2021/11/13 11:59:05;;;;;;;13.75;7.00;;;6.60;90.70;;;;;;5001504;28;20037;-66
2021/11/13 12:01:42;;;;;;;12.85;6.65;;;6.60;90.70;;;;;;5000295;28;20026;-67
2021/11/13 12:04:22;;;;;;;15.02;7.85;;;6.50;90.70;;;;;;5001784;28;20033;-68
2021/11/13 12:06:55;;;;;;;14.95;8.00;;;6.40;91.20;;;;;;5016895;28;20321;-68
2021/11/13 12:09:24;;;;;;;15.65;8.07;;;6.30;91.60;;;;;;5001417;28;20337;-66
2021/11/13 12:12:21;;;;;;;11.07;6.70;;;6.30;91.80;;;;;;4999587;28;20029;-66
2021/11/13 12:14:47;;;;;;;15.38;7.75;;;6.20;92.10;;;;;;5001706;28;20030;-66
2021/11/13 12:17:31;;;;;;;16.35;8.10;;;6.10;92.50;;;;;;5000229;28;20041;-67
2021/11/13 12:20:22;;;;;;;15.20;8.18;;;6.10;92.60;;;;;;5001542;28;20042;-67
2021/11/13 12:23:00;;;;;;;14.68;8.10;;;6.10;93.30;;;;;;5000338;28;20034;-68
2021/11/13 12:25:37;;;;;;;16.95;7.95;;;6.20;93.20;;;;;;5000442;28;20244;-66
2021/11/13 12:28:08;;;;;;;14.85;7.78;;;6.30;92.90;;;;;;5001177;28;20031;-68
2021/11/13 12:31:05;;;;;;;17.55;8.43;;;6.30;93.00;;;;;;5000604;28;20378;-68
2021/11/13 12:33:32;;;;;;;14.57;8.00;;;6.40;92.60;;;;;;5001317;28;20344;-68
2021/11/13 12:36:01;;;;;;;14.32;7.05;;;6.40;92.50;;;;;;5000661;28;20022;-67
2021/11/13 12:38:52;;;;;;;16.83;8.07;;;6.40;93.00;;;;;;5001375;28;20032;-67
2021/11/13 12:41:42;;;;;;;13.52;7.53;;;6.50;92.90;;;;;;5001043;28;20042;-66
2021/11/13 12:44:20;;;;;;;14.48;7.60;;;6.60;92.70;;;;;;5001180;28;20118;-66
2021/11/13 12:46:58;;;;;;;15.35;8.18;;;6.70;92.30;;;;;;5001451;28;20057;-67
2021/11/13 12:49:48;;;;;;;17.35;8.70;;;6.80;92.40;;;;;;5000041;28;20022;-67